Time;durP1;ratioP1;P1;durP2;ratioP2;P2;SDS_P1;SDS_P2;PMS_P1;PMS_P2;Temp;Humidity;BMP_temperature;BMP_pressure;BME280_temperature;BME280_humidity;BME280_pressure;Samples;Min_cycle;Max_cycle;Signal;HPM_P1;HPM_P2
2022/09/24 00:01:39;;;;;;;5.68;2.60;;;;;;;22.08;46.89;101246.91;5015040;28;20046;-70
2022/09/24 00:04:13;;;;;;;5.75;3.05;;;;;;;22.08;46.82;101246.03;5014452;28;20500;-71
2022/09/24 00:06:43;;;;;;;4.88;2.63;;;;;;;22.07;46.84;101245.19;5014174;28;20042;-71
2022/09/24 00:09:14;;;;;;;4.85;2.58;;;;;;;22.07;46.83;101245.19;5013812;28;20055;-71
2022/09/24 00:11:44;;;;;;;3.80;2.60;;;;;;;22.07;46.80;101231.69;5014134;28;20058;-71
2022/09/24 00:14:12;;;;;;;3.42;2.65;;;;;;;22.07;46.77;101231.69;5014443;28;20054;-71
2022/09/24 00:16:41;;;;;;;3.13;2.42;;;;;;;22.06;46.94;101231.84;5014446;28;20038;-71
2022/09/24 00:19:09;;;;;;;5.43;2.50;;;;;;;22.07;46.76;101220.91;5013965;28;20050;-71
2022/09/24 00:21:37;;;;;;;3.38;2.60;;;;;;;22.06;46.86;101229.16;5014259;28;20397;-71
2022/09/24 00:26:48;;;;;;;3.47;2.65;;;;;;;22.05;46.85;101220.22;5013885;28;20054;-71
2022/09/24 00:26:59;;;;;;;4.07;2.65;;;;;;;22.06;46.78;101230.00;5014250;28;20046;-71
2022/09/24 00:29:26;;;;;;;3.53;2.78;;;;;;;22.06;46.84;101221.91;5014402;28;20075;-71
2022/09/24 00:31:54;;;;;;;3.22;2.65;;;;;;;22.05;46.72;101225.59;5014296;28;20053;-71
2022/09/24 00:34:21;;;;;;;4.82;2.85;;;;;;;22.05;46.62;101222.91;5014262;28;20057;-71
2022/09/24 00:36:48;;;;;;;4.32;2.70;;;;;;;22.05;46.76;101213.97;5013660;28;20053;-71
2022/09/24 00:39:16;;;;;;;3.53;2.42;;;;;;;22.05;46.78;101217.53;5013918;28;20495;-71
2022/09/24 00:41:47;;;;;;;3.35;2.80;;;;;;;22.05;46.66;101222.91;5013577;28;20046;-71
2022/09/24 00:44:39;;;;;;;4.40;3.00;;;;;;;22.05;46.61;101214.81;5014211;28;20487;-71
2022/09/24 00:47:27;;;;;;;5.28;2.85;;;;;;;22.04;46.65;101213.13;5013605;28;20397;-71
2022/09/24 00:50:05;;;;;;;7.13;3.00;;;;;;;22.04;46.69;101218.53;5013401;28;20486;-71
2022/09/24 00:52:43;;;;;;;4.03;2.60;;;;;;;22.04;46.69;101214.94;5013683;28;20482;-71
2022/09/24 00:55:11;;;;;;;2.97;2.55;;;;;;;22.04;46.66;101209.56;5013910;28;20050;-71
2022/09/24 00:57:40;;;;;;;4.15;2.65;;;;;;;22.03;46.67;101206.00;5013363;28;20061;-71
2022/09/24 01:00:09;;;;;;;5.00;2.60;;;;;;;22.03;46.58;101211.41;5005144;28;20047;-71
2022/09/24 01:02:41;;;;;;;7.65;3.00;;;;;;;22.03;46.60;101205.16;5117022;28;20046;-71
2022/09/24 01:05:09;;;;;;;2.88;2.58;;;;;;;22.02;46.78;101212.41;5117387;28;20044;-71
2022/09/24 01:07:36;;;;;;;4.13;2.40;;;;;;;22.03;46.47;101202.47;5106460;28;20043;-71
2022/09/24 01:10:04;;;;;;;4.45;2.97;;;;;;;22.02;46.62;101189.97;5029098;27;20057;-71
2022/09/24 01:12:47;;;;;;;3.08;2.45;;;;;;;22.02;46.56;101185.44;5013317;28;20056;-71
2022/09/24 01:15:18;;;;;;;3.20;2.42;;;;;;;22.02;46.56;101177.34;5012628;28;20354;-71
2022/09/24 01:17:53;;;;;;;3.63;2.70;;;;;;;22.02;46.64;101180.06;5013379;28;20057;-71
2022/09/24 01:20:37;;;;;;;3.47;2.42;;;;;;;22.01;46.50;101182.91;5013667;28;20056;-71
2022/09/24 01:23:26;;;;;;;4.30;2.90;;;;;;;22.02;46.61;101166.56;5013874;28;20400;-71
2022/09/24 01:26:03;;;;;;;3.70;2.15;;;;;;;22.02;46.61;101163.03;5013225;28;20045;-71
2022/09/24 01:28:42;;;;;;;3.95;2.88;;;;;;;22.02;46.54;101154.94;5013342;28;20049;-71
2022/09/24 01:31:17;;;;;;;4.13;2.60;;;;;;;22.01;46.58;101151.41;5013151;28;20493;-70
2022/09/24 01:33:48;;;;;;;3.58;2.83;;;;;;;22.01;46.51;101147.84;5012921;28;20065;-71
2022/09/24 01:36:17;;;;;;;3.03;2.50;;;;;;;22.01;46.57;101147.84;5013009;28;20050;-71
2022/09/24 01:38:48;;;;;;;3.63;2.58;;;;;;;22.01;46.53;101153.25;5013138;28;20049;-71
2022/09/24 01:41:17;;;;;;;4.13;2.80;;;;;;;22.01;46.65;101155.94;5013002;28;20509;-71
2022/09/24 01:43:45;;;;;;;5.88;2.78;;;;;;;22.01;46.70;101153.25;5012923;28;20497;-71
2022/09/24 01:46:15;;;;;;;3.30;2.78;;;;;;;22.00;46.59;101147.00;5015558;28;20408;-71
2022/09/24 01:48:43;;;;;;;4.18;2.72;;;;;;;21.99;46.60;101139.88;5115964;28;20403;-71
2022/09/24 01:51:21;;;;;;;3.78;2.90;;;;;;;22.01;46.59;101139.75;5115905;28;20043;-71
2022/09/24 01:53:51;;;;;;;2.85;2.55;;;;;;;21.98;46.58;101138.19;5116425;28;20044;-71
2022/09/24 01:56:29;;;;;;;3.85;2.53;;;;;;;21.98;46.55;101130.09;5116713;28;20047;-71
2022/09/24 01:59:22;;;;;;;3.95;2.70;;;;;;;21.98;46.54;101133.66;5087996;28;20057;-71
2022/09/24 02:02:21;;;;;;;3.63;2.95;;;;;;;21.98;46.73;101132.78;5013829;28;20069;-72
2022/09/24 02:04:55;;;;;;;3.03;2.63;;;;;;;21.98;46.56;101119.31;5014869;28;20069;-71
2022/09/24 02:07:29;;;;;;;4.88;2.75;;;;;;;21.98;46.62;101122.00;5012565;28;20042;-71
2022/09/24 02:09:56;;;;;;;3.70;2.65;;;;;;;21.97;46.63;101126.56;5011667;28;20065;-71
2022/09/24 02:12:38;;;;;;;4.60;2.50;;;;;;;21.98;46.54;101132.78;5012748;28;20482;-71
2022/09/24 02:15:12;;;;;;;3.28;2.92;;;;;;;21.97;46.72;101129.25;5012759;28;20410;-71
2022/09/24 02:17:43;;;;;;;3.80;3.00;;;;;;;21.96;46.68;101130.25;5011701;28;20053;-71
2022/09/24 02:20:18;;;;;;;3.53;2.83;;;;;;;21.97;46.65;101133.81;5012284;28;20056;-71
2022/09/24 02:22:48;;;;;;;3.10;2.38;;;;;;;21.96;46.71;101132.94;5012547;28;20057;-71
2022/09/24 02:25:19;;;;;;;3.03;2.47;;;;;;;21.96;46.76;101132.94;5012088;28;20046;-71
2022/09/24 02:27:47;;;;;;;2.97;2.65;;;;;;;21.96;46.69;101142.88;5012303;28;20408;-71
2022/09/24 02:30:14;;;;;;;2.92;2.53;;;;;;;21.96;46.63;101142.88;5012568;28;20378;-71
2022/09/24 02:32:43;;;;;;;4.80;2.90;;;;;;;21.96;46.67;101132.09;5011050;28;20050;-71
2022/09/24 02:35:11;;;;;;;3.08;2.78;;;;;;;21.95;46.58;101133.91;5011822;28;20058;-71
2022/09/24 02:37:43;;;;;;;3.08;2.28;;;;;;;21.95;46.68;101133.91;5012162;28;20049;-71
2022/09/24 02:40:13;;;;;;;4.82;2.60;;;;;;;21.95;46.50;101133.06;5012409;28;20049;-71
2022/09/24 02:42:42;;;;;;;3.42;2.38;;;;;;;21.96;46.57;101140.19;5010510;28;20054;-71
2022/09/24 02:45:10;;;;;;;3.47;2.80;;;;;;;21.95;46.77;101141.16;5011990;28;20046;-71
2022/09/24 02:47:38;;;;;;;3.22;2.75;;;;;;;21.94;46.80;101142.16;5011804;28;20045;-71
2022/09/24 02:50:06;;;;;;;3.70;2.40;;;;;;;21.95;46.63;101150.09;5011872;28;20054;-71
2022/09/24 02:52:33;;;;;;;4.03;2.55;;;;;;;21.95;46.75;101149.25;5012036;28;20045;-71
2022/09/24 02:55:00;;;;;;;2.85;2.50;;;;;;;21.94;46.76;101142.16;5011935;28;20046;-71
2022/09/24 02:57:28;;;;;;;3.22;2.65;;;;;;;21.95;46.74;101135.78;5011961;28;20046;-71
2022/09/24 02:59:55;;;;;;;3.15;2.65;;;;;;;21.95;46.70;101135.78;4998378;28;20046;-71
2022/09/24 03:02:22;;;;;;;3.90;3.00;;;;;;;21.94;46.67;101126.00;5078387;28;20055;-71
2022/09/24 03:04:50;;;;;;;5.75;2.88;;;;;;;21.94;46.71;101120.59;5115237;28;20384;-71
2022/09/24 03:07:20;;;;;;;3.75;2.45;;;;;;;21.93;46.72;101119.75;5114780;28;20510;-71
2022/09/24 03:09:47;;;;;;;3.03;2.53;;;;;;;21.92;46.80;101128.84;5096769;28;20044;-71
2022/09/24 03:12:15;;;;;;;2.95;2.60;;;;;;;21.93;46.75;101119.75;5010927;28;20061;-71
2022/09/24 03:14:42;;;;;;;2.65;2.05;;;;;;;21.93;46.73;101113.50;5011916;28;20046;-71
2022/09/24 03:17:09;;;;;;;3.58;2.80;;;;;;;21.93;46.87;101113.50;5011519;28;20042;-71
2022/09/24 03:19:36;;;;;;;4.00;3.00;;;;;;;21.93;46.89;101108.97;5012007;28;20053;-71
2022/09/24 03:22:04;;;;;;;3.60;2.47;;;;;;;21.92;46.78;101107.28;5011285;28;20046;-71
2022/09/24 03:24:31;;;;;;;3.45;3.15;;;;;;;21.93;46.71;101118.91;5011343;28;20048;-71
2022/09/24 03:26:58;;;;;;;3.75;2.88;;;;;;;21.92;46.66;101118.06;5011165;28;20041;-71
2022/09/24 03:32:11;;;;;;;3.08;2.75;;;;;;;21.92;46.68;101112.66;5014688;28;20054;-71
2022/09/24 03:34:39;;;;;;;3.03;2.70;;;;;;;21.92;47.01;101107.28;5014659;28;20594;-71
2022/09/24 03:37:07;;;;;;;2.80;2.45;;;;;;;21.91;46.72;101097.47;5015202;28;20405;-71
2022/09/24 03:39:34;;;;;;;2.88;2.35;;;;;;;21.91;46.80;101107.41;5014775;28;20041;-71
2022/09/24 03:42:01;;;;;;;3.33;2.63;;;;;;;21.90;46.84;101117.34;5014741;28;20046;-71
2022/09/24 03:44:29;;;;;;;3.03;2.67;;;;;;;21.91;46.90;101104.69;5015017;28;20050;-71
2022/09/24 03:46:56;;;;;;;2.97;2.42;;;;;;;21.91;46.98;101104.69;5014609;28;20054;-71
2022/09/24 03:49:24;;;;;;;4.72;2.67;;;;;;;21.91;46.92;101102.00;5094687;28;20047;-71
2022/09/24 03:51:52;;;;;;;6.78;2.72;;;;;;;21.91;47.08;101091.22;5118253;28;20048;-71
2022/09/24 03:54:19;;;;;;;3.20;2.40;;;;;;;21.91;47.00;101093.91;5119042;28;20052;-71
2022/09/24 03:56:46;;;;;;;5.18;2.95;;;;;;;21.90;47.02;101097.63;5118336;28;20036;-71
2022/09/24 03:59:13;;;;;;;4.30;2.58;;;;;;;21.90;47.00;101093.06;5077826;28;20048;-71
2022/09/24 04:01:40;;;;;;;3.60;3.08;;;;;;;21.90;46.95;101097.63;5014342;28;20050;-71
2022/09/24 04:04:08;;;;;;;2.80;2.42;;;;;;;21.90;46.79;101101.16;5014738;28;20050;-71
2022/09/24 04:06:35;;;;;;;3.22;2.58;;;;;;;21.89;46.92;101096.75;5012888;28;20439;-71
2022/09/24 04:09:03;;;;;;;3.75;2.63;;;;;;;21.90;46.90;101103.84;5014693;28;20049;-71
2022/09/24 04:11:31;;;;;;;4.85;3.08;;;;;;;21.89;47.07;101107.56;5013698;28;20037;-71
2022/09/24 04:13:58;;;;;;;3.60;2.70;;;;;;;21.90;47.07;101103.00;5013803;28;20046;-71
2022/09/24 04:16:25;;;;;;;3.25;2.65;;;;;;;21.88;47.05;101105.84;5014647;28;20046;-71
2022/09/24 04:18:54;;;;;;;3.33;2.70;;;;;;;21.88;47.05;101100.47;5014589;28;20046;-71
2022/09/24 04:21:21;;;;;;;3.33;2.50;;;;;;;21.87;46.95;101093.34;5013991;28;20045;-71
2022/09/24 04:23:49;;;;;;;5.95;2.72;;;;;;;21.88;47.04;101091.53;5014012;28;20397;-71
2022/09/24 04:26:16;;;;;;;3.95;2.92;;;;;;;21.88;46.84;101083.44;5014497;28;20606;-71
2022/09/24 04:28:43;;;;;;;3.03;2.65;;;;;;;21.87;47.05;101077.16;5014051;28;20049;-71
2022/09/24 04:31:10;;;;;;;4.13;2.50;;;;;;;21.88;46.98;101086.13;5014142;28;20046;-71
2022/09/24 04:33:39;;;;;;;4.22;2.85;;;;;;;21.89;47.04;101085.13;5013813;28;20421;-71
2022/09/24 04:36:06;;;;;;;2.92;2.55;;;;;;;21.87;46.99;101087.09;5013908;28;20049;-71
2022/09/24 04:38:34;;;;;;;3.08;2.42;;;;;;;21.87;47.10;101093.34;5014371;28;20402;-71
2022/09/24 04:41:06;;;;;;;4.43;2.55;;;;;;;21.88;47.01;101091.53;5013421;28;20056;-71
2022/09/24 04:43:35;;;;;;;3.50;2.85;;;;;;;21.87;47.12;101098.75;5013661;28;20401;-71
2022/09/24 04:46:04;;;;;;;4.07;2.50;;;;;;;21.86;47.13;101099.75;5013675;28;20049;-71
2022/09/24 04:48:31;;;;;;;3.13;2.53;;;;;;;21.87;47.03;101095.19;5013758;28;20042;-71
2022/09/24 04:50:58;;;;;;;3.22;2.50;;;;;;;21.86;47.06;101102.44;5013709;28;20428;-71
2022/09/24 04:53:26;;;;;;;3.08;2.50;;;;;;;21.86;47.09;101101.59;5013449;28;20054;-71
2022/09/24 04:55:53;;;;;;;3.90;3.25;;;;;;;21.86;47.19;101088.97;5014070;28;20046;-71
2022/09/24 04:58:21;;;;;;;4.05;2.95;;;;;;;21.85;47.30;101079.19;5013246;28;20042;-71
2022/09/24 05:00:50;;;;;;;6.65;2.92;;;;;;;21.86;47.08;101074.63;4994275;28;20057;-71
2022/09/24 05:03:20;;;;;;;3.35;2.38;;;;;;;21.86;47.09;101080.03;5007543;28;20042;-74
2022/09/24 05:05:49;;;;;;;3.03;2.40;;;;;;;21.86;47.17;101082.72;5013822;28;20119;-74
2022/09/24 05:08:16;;;;;;;3.08;2.70;;;;;;;21.86;47.20;101077.34;5013591;28;20111;-74
2022/09/24 05:10:43;;;;;;;3.05;2.45;;;;;;;21.86;47.25;101074.63;5013978;28;20054;-74
2022/09/24 05:13:10;;;;;;;4.13;2.67;;;;;;;21.86;47.20;101077.34;5012617;28;20042;-73
2022/09/24 05:15:38;;;;;;;3.63;2.85;;;;;;;21.85;47.26;101075.63;5013751;28;20386;-73
2022/09/24 05:18:09;;;;;;;3.65;2.55;;;;;;;21.85;47.14;101081.03;5014469;28;20061;-74
2022/09/24 05:20:36;;;;;;;3.83;2.67;;;;;;;21.84;47.11;101079.34;5013290;28;20042;-74
2022/09/24 05:23:04;;;;;;;2.90;2.60;;;;;;;21.84;47.10;101085.56;5013514;28;20485;-73
2022/09/24 05:25:31;;;;;;;2.78;2.53;;;;;;;21.84;47.10;101082.88;5013851;28;20041;-73
2022/09/24 05:27:58;;;;;;;3.45;2.58;;;;;;;21.84;47.29;101087.41;5013157;28;20046;-74
2022/09/24 05:30:26;;;;;;;3.22;2.40;;;;;;;21.84;47.16;101088.25;5013279;28;20050;-74
2022/09/24 05:32:53;;;;;;;4.18;2.70;;;;;;;21.83;47.18;101081.16;5013800;28;20050;-74
2022/09/24 05:35:22;;;;;;;3.28;2.70;;;;;;;21.83;47.15;101074.91;5013095;28;20061;-74
2022/09/24 05:37:52;;;;;;;3.13;2.83;;;;;;;21.83;47.08;101078.44;5013148;28;20038;-73
2022/09/24 05:43:07;;;;;;;3.25;2.50;;;;;;;21.82;47.14;101090.22;5012971;28;20042;-73
2022/09/24 05:45:34;;;;;;;2.90;2.50;;;;;;;21.82;47.11;101095.63;5013216;28;20042;-73
2022/09/24 05:48:01;;;;;;;4.68;2.55;;;;;;;21.82;47.18;101095.63;5013642;28;20045;-74
2022/09/24 05:50:29;;;;;;;4.25;2.67;;;;;;;21.82;47.16;101101.00;5115402;28;20050;-73
2022/09/24 05:52:57;;;;;;;3.25;2.95;;;;;;;21.83;47.17;101096.47;5115727;28;20055;-73
2022/09/24 05:55:24;;;;;;;3.65;2.67;;;;;;;21.82;47.12;101089.38;5116470;28;20403;-74
2022/09/24 05:58:09;;;;;;;2.83;2.53;;;;;;;21.82;47.14;101094.78;5116757;28;20395;-74
2022/09/24 06:00:37;;;;;;;3.13;2.38;;;;;;;21.81;47.31;101093.09;5016367;28;20050;-74
2022/09/24 06:03:08;;;;;;;4.15;2.70;;;;;;;21.81;47.09;101091.22;5013047;28;20050;-74
2022/09/24 06:05:35;;;;;;;3.10;2.67;;;;;;;21.82;47.08;101092.94;5011087;28;20054;-73
2022/09/24 06:08:04;;;;;;;4.35;3.00;;;;;;;21.81;47.14;101091.22;5012638;28;20053;-74
2022/09/24 06:10:31;;;;;;;2.95;2.65;;;;;;;21.81;47.09;101087.69;5013113;28;20042;-73
2022/09/24 06:12:58;;;;;;;3.60;2.85;;;;;;;21.81;47.14;101090.38;5012111;28;20041;-73
2022/09/24 06:15:26;;;;;;;5.03;2.72;;;;;;;21.80;47.14;101089.53;5011848;28;20046;-73
2022/09/24 06:17:54;;;;;;;5.10;2.63;;;;;;;21.79;47.23;101085.13;5012358;28;20053;-73
2022/09/24 06:20:22;;;;;;;3.88;2.58;;;;;;;21.80;47.07;101077.91;5012044;28;20061;-73
2022/09/24 06:22:50;;;;;;;3.00;2.70;;;;;;;21.82;47.10;101089.38;5011758;28;20516;-73
2022/09/24 06:25:17;;;;;;;5.05;2.55;;;;;;;21.80;47.14;101086.00;5011825;28;20057;-73
2022/09/24 06:27:44;;;;;;;3.05;2.15;;;;;;;21.81;47.09;101093.09;5012134;28;20046;-73
2022/09/24 06:30:12;;;;;;;3.78;2.70;;;;;;;21.80;47.00;101083.31;5011403;28;20054;-73
2022/09/24 06:32:39;;;;;;;8.25;2.90;;;;;;;21.80;47.11;101086.00;5011479;28;20046;-73
2022/09/24 06:35:06;;;;;;;3.40;2.47;;;;;;;21.80;47.14;101086.00;5010879;28;20061;-73
2022/09/24 06:37:34;;;;;;;2.90;2.20;;;;;;;21.79;47.10;101093.22;5011299;28;20053;-74
2022/09/24 06:40:02;;;;;;;5.05;2.20;;;;;;;21.79;47.09;101093.22;5011293;28;20405;-74
2022/09/24 06:42:30;;;;;;;2.60;2.10;;;;;;;21.80;46.93;101110.25;5011004;28;20057;-73
2022/09/24 06:44:57;;;;;;;2.72;2.38;;;;;;;21.80;46.90;101105.72;5011189;28;20058;-72
2022/09/24 06:47:25;;;;;;;3.25;2.47;;;;;;;21.80;46.84;101107.56;5012144;28;20057;-73
2022/09/24 06:49:52;;;;;;;2.92;2.50;;;;;;;21.79;46.94;101104.00;5011687;28;20046;-73
2022/09/24 06:52:22;;;;;;;4.28;2.42;;;;;;;21.79;47.03;101104.00;5011392;28;20053;-74
2022/09/24 06:54:49;;;;;;;3.30;2.50;;;;;;;21.79;46.99;101101.28;5011154;28;20057;-74
2022/09/24 06:57:16;;;;;;;2.60;2.40;;;;;;;21.81;46.90;101111.94;5011183;28;20049;-73
2022/09/24 06:59:44;;;;;;;3.35;2.70;;;;;;;21.80;46.91;101102.16;4999677;28;20050;-73
2022/09/24 07:02:12;;;;;;;3.60;2.60;;;;;;;21.80;47.00;101104.88;4993422;28;20397;-74
2022/09/24 07:04:39;;;;;;;2.65;2.20;;;;;;;21.80;47.04;101110.25;5065623;28;20051;-74
2022/09/24 07:09:52;;;;;;;4.55;2.65;;;;;;;21.79;47.09;101109.38;5114798;28;20044;-73
2022/09/24 07:12:19;;;;;;;3.53;2.40;;;;;;;21.80;46.96;101112.94;5115295;28;20486;-74
2022/09/24 07:14:46;;;;;;;4.20;2.47;;;;;;;21.80;47.00;101119.19;5054946;28;20042;-74
2022/09/24 07:17:14;;;;;;;3.03;2.40;;;;;;;21.80;47.00;101113.78;5011070;28;20042;-74
2022/09/24 07:19:41;;;;;;;4.05;2.88;;;;;;;21.80;47.01;101124.56;5012318;28;20520;-73
2022/09/24 07:22:09;;;;;;;3.58;2.55;;;;;;;21.80;47.03;101108.41;5011454;28;20046;-73
2022/09/24 07:24:36;;;;;;;3.28;2.22;;;;;;;21.80;46.96;101110.25;5012568;28;20042;-73
2022/09/24 07:27:04;;;;;;;3.50;2.20;;;;;;;21.80;47.02;101100.31;5011412;28;20056;-74
2022/09/24 07:29:32;;;;;;;4.53;2.67;;;;;;;21.80;46.98;101108.41;5011249;28;20049;-73
2022/09/24 07:32:00;;;;;;;3.55;2.47;;;;;;;21.81;47.00;101106.56;5011954;28;20049;-73
2022/09/24 07:34:28;;;;;;;3.42;2.28;;;;;;;21.80;46.95;101110.25;5011074;28;20418;-73
2022/09/24 07:36:56;;;;;;;5.18;2.65;;;;;;;21.81;47.09;101120.03;5010249;28;20045;-73
2022/09/24 07:39:24;;;;;;;2.45;2.20;;;;;;;21.81;47.02;101114.66;5011698;28;20042;-72
2022/09/24 07:41:52;;;;;;;3.22;2.22;;;;;;;21.80;46.81;101112.94;5010513;28;20045;-73
2022/09/24 07:44:19;;;;;;;3.53;2.70;;;;;;;21.80;47.03;101118.34;5010442;28;20050;-74
2022/09/24 07:46:47;;;;;;;3.75;2.72;;;;;;;21.81;47.03;101109.25;5010177;28;20493;-73
2022/09/24 07:49:15;;;;;;;3.88;2.55;;;;;;;21.81;47.08;101109.25;5017357;28;20734;-73
2022/09/24 07:51:43;;;;;;;2.83;2.38;;;;;;;21.81;47.10;101111.94;5113468;28;20047;-73
2022/09/24 07:54:10;;;;;;;4.10;2.35;;;;;;;21.81;47.14;101109.25;5113366;28;20506;-71
2022/09/24 07:56:43;;;;;;;2.95;2.50;;;;;;;21.81;47.15;101117.34;5113342;28;20052;-73
2022/09/24 07:59:10;;;;;;;3.08;2.72;;;;;;;21.80;47.25;101116.50;5073953;28;20064;-73
2022/09/24 08:01:38;;;;;;;3.60;2.78;;;;;;;21.83;47.28;101126.13;5010165;28;20053;-73
2022/09/24 08:04:06;;;;;;;6.50;2.58;;;;;;;21.82;47.40;101117.19;5008661;28;20046;-73
2022/09/24 08:06:35;;;;;;;4.72;2.92;;;;;;;21.83;47.28;101116.19;5010555;28;20057;-73
2022/09/24 08:09:06;;;;;;;7.20;2.90;;;;;;;21.83;47.36;101110.78;5009791;28;20049;-73
2022/09/24 08:11:34;;;;;;;5.60;2.55;;;;;;;21.84;47.37;101125.16;5009869;28;20042;-73
2022/09/24 08:14:02;;;;;;;5.10;2.70;;;;;;;21.84;47.52;101117.06;5009930;28;20053;-73
2022/09/24 08:16:29;;;;;;;5.10;2.78;;;;;;;21.84;47.73;101117.91;5004394;28;20046;-73
2022/09/24 08:18:56;;;;;;;3.90;2.70;;;;;;;21.84;47.21;101117.06;5013596;28;20397;-73
2022/09/24 08:21:24;;;;;;;7.30;2.55;;;;;;;21.84;47.30;101112.53;5013264;28;20042;-73
2022/09/24 08:23:51;;;;;;;7.90;2.92;;;;;;;21.84;47.35;101117.91;5013797;28;20057;-73
2022/09/24 08:26:18;;;;;;;4.45;2.80;;;;;;;21.84;47.41;101119.75;5013427;28;20057;-73
2022/09/24 08:28:48;;;;;;;3.63;2.55;;;;;;;21.86;47.51;101123.16;5012931;28;20045;-74
2022/09/24 08:31:15;;;;;;;3.53;2.40;;;;;;;21.85;47.66;101121.47;5013869;28;20057;-73
2022/09/24 08:33:45;;;;;;;4.82;2.70;;;;;;;21.85;47.51;101116.91;5013281;28;20061;-74
2022/09/24 08:36:12;;;;;;;6.82;2.83;;;;;;;21.84;46.83;101115.22;5013252;28;20405;-73
2022/09/24 08:38:39;;;;;;;4.05;2.85;;;;;;;21.85;46.20;101121.47;5013297;28;20057;-73
2022/09/24 08:41:13;;;;;;;3.72;2.60;;;;;;;21.84;45.81;101115.22;5012842;28;20050;-73
2022/09/24 08:43:58;;;;;;;3.95;2.95;;;;;;;21.83;45.57;101113.50;5013435;28;20421;-73
2022/09/24 08:49:44;;;;;;;4.63;3.00;;;;;;;21.83;45.31;101113.50;5011925;28;20477;-74
2022/09/24 08:52:17;;;;;;;6.35;3.38;;;;;;;21.84;45.40;101119.75;5013005;28;20065;-74
2022/09/24 08:54:46;;;;;;;4.15;2.75;;;;;;;21.82;45.68;101122.56;5011659;28;20046;-81
2022/09/24 08:57:17;;;;;;;3.50;2.95;;;;;;;21.83;45.50;101118.03;5005154;28;20050;-74
2022/09/24 08:59:50;;;;;;;4.72;3.22;;;;;;;21.82;45.69;101122.56;5005370;28;20045;-73
2022/09/24 09:02:36;;;;;;;4.75;3.08;;;;;;;21.82;45.61;101122.56;5012840;28;20068;-75
2022/09/24 09:05:33;;;;;;;3.97;2.97;;;;;;;21.81;45.91;101118.19;5047659;28;20074;-75
2022/09/24 09:08:12;;;;;;;3.83;2.90;;;;;;;21.81;45.64;101117.34;5116883;28;20107;-74
2022/09/24 09:11:35;;;;;;;7.85;2.92;;;;;;;21.80;46.15;101116.50;5116912;28;20474;-75
2022/09/24 09:14:34;;;;;;;7.07;3.03;;;;;;;21.80;46.04;101113.78;5058709;28;20060;-74
2022/09/24 09:17:20;;;;;;;8.93;3.25;;;;;;;21.80;45.98;101118.34;5003212;28;20042;-74
2022/09/24 09:19:56;;;;;;;3.70;3.08;;;;;;;21.80;46.02;101118.34;4992202;28;20061;-75
2022/09/24 09:22:29;;;;;;;4.35;3.40;;;;;;;21.81;45.98;101120.88;4994022;28;20058;-78
2022/09/24 09:25:14;;;;;;;5.32;3.03;;;;;;;21.82;46.30;101121.72;4992844;28;20493;-76
2022/09/24 09:27:41;;;;;;;4.45;3.05;;;;;;;21.82;46.59;101121.72;4992615;28;20043;-75
2022/09/24 09:30:14;;;;;;;8.75;3.50;;;;;;;21.81;47.08;101115.50;4993242;28;20482;-75
2022/09/24 09:33:01;;;;;;;6.75;3.33;;;;;;;21.81;47.18;101114.66;4993171;28;20095;-75
2022/09/24 09:35:34;;;;;;;6.03;3.10;;;;;;;21.82;47.11;101121.72;4992666;28;20054;-74
2022/09/24 09:38:18;;;;;;;8.15;3.63;;;;;;;21.83;46.98;101115.34;4993554;28;20409;-75
2022/09/24 09:40:51;;;;;;;4.45;2.95;;;;;;;21.82;47.06;101114.50;4992768;28;20046;-74
2022/09/24 09:43:19;;;;;;;8.93;3.20;;;;;;;21.83;47.15;101110.78;4993075;28;20061;-75
2022/09/24 09:46:11;;;;;;;4.38;2.90;;;;;;;21.83;46.99;101107.25;4994115;28;20053;-75
2022/09/24 09:48:53;;;;;;;6.15;2.72;;;;;;;21.84;47.09;101108.97;4993368;28;20053;-75
2022/09/24 09:51:24;;;;;;;4.72;2.78;;;;;;;21.83;47.13;101104.56;5074425;28;20097;-74
2022/09/24 09:54:00;;;;;;;4.05;3.10;;;;;;;21.83;46.99;101091.09;5116135;28;20047;-74
2022/09/24 09:56:30;;;;;;;4.20;3.03;;;;;;;21.85;47.24;101097.19;5116574;28;20055;-74
2022/09/24 09:59:05;;;;;;;3.90;2.85;;;;;;;21.84;47.10;101098.19;5087029;28;20049;-75
2022/09/24 10:01:35;;;;;;;6.10;3.00;;;;;;;21.83;47.20;101086.53;5012752;28;20409;-74
2022/09/24 10:04:03;;;;;;;6.78;3.33;;;;;;;21.83;47.32;101077.59;5013177;28;20041;-75
2022/09/24 10:06:34;;;;;;;6.10;3.33;;;;;;;21.83;47.02;101067.66;5012487;28;20046;-74
2022/09/24 10:09:19;;;;;;;5.18;3.00;;;;;;;21.84;47.20;101065.84;5012856;28;20046;-75
2022/09/24 10:11:47;;;;;;;3.88;2.80;;;;;;;21.83;47.13;101054.19;5013111;28;20446;-75
2022/09/24 10:14:18;;;;;;;4.72;2.90;;;;;;;21.84;47.30;101049.69;5012854;28;20046;-75
2022/09/24 10:16:51;;;;;;;3.40;2.95;;;;;;;21.83;47.40;101054.19;5009028;28;20055;-75
2022/09/24 10:19:19;;;;;;;;;;;;;;;21.83;47.51;101056.03;4991519;28;20050;-75
2022/09/24 10:21:48;;;;;;;3.58;2.88;;;;;;;21.83;47.37;101053.34;4993014;28;19945;-74
2022/09/24 10:24:21;;;;;;;6.75;2.92;;;;;;;21.82;47.42;101047.13;4992296;28;20113;-75
2022/09/24 10:26:49;;;;;;;5.03;2.78;;;;;;;21.83;47.40;101047.97;4992535;28;20054;-75
2022/09/24 10:32:20;;;;;;;5.22;2.65;;;;;;;21.83;47.46;101056.88;4992472;28;20050;-74
2022/09/24 10:35:04;;;;;;;4.25;2.92;;;;;;;21.82;47.42;101057.91;4993443;28;20061;-74
2022/09/24 10:37:32;;;;;;;3.13;2.75;;;;;;;21.83;47.33;101053.34;4991330;28;20054;-74
2022/09/24 10:40:02;;;;;;;3.13;2.53;;;;;;;21.82;47.43;101063.28;4991984;28;20042;-75
2022/09/24 10:42:29;;;;;;;4.68;2.75;;;;;;;21.82;47.47;101065.97;4990944;28;20050;-75
2022/09/24 10:45:03;;;;;;;3.92;2.60;;;;;;;21.82;47.46;101057.03;4991758;28;20046;-75
2022/09/24 10:48:07;;;;;;;3.28;2.30;;;;;;;21.82;47.44;101047.13;4992295;28;20049;-75
2022/09/24 10:50:41;;;;;;;3.05;2.60;;;;;;;21.82;47.43;101054.34;4992355;28;20046;-75
2022/09/24 10:53:18;;;;;;;3.47;2.88;;;;;;;21.82;47.41;101067.81;4991414;28;20042;-75
2022/09/24 10:56:15;;;;;;;5.10;2.95;;;;;;;21.83;47.43;101064.13;4992388;28;20113;-75
2022/09/24 10:59:14;;;;;;;4.00;2.67;;;;;;;21.83;47.43;101064.13;4991875;28;20065;-75
2022/09/24 11:01:48;;;;;;;3.53;2.78;;;;;;;21.82;47.50;101063.28;4993483;28;20054;-75
2022/09/24 11:04:21;;;;;;;2.97;2.22;;;;;;;21.82;47.52;101060.59;4992084;28;20061;-75
2022/09/24 11:07:16;;;;;;;4.00;2.78;;;;;;;21.83;47.48;101058.75;5073624;28;20052;-75
2022/09/24 11:10:03;;;;;;;3.22;2.40;;;;;;;21.82;47.44;101059.75;5114807;28;20043;-75
2022/09/24 11:12:51;;;;;;;3.65;2.58;;;;;;;21.82;47.47;101065.13;5114540;28;20047;-75
2022/09/24 11:15:28;;;;;;;5.13;2.67;;;;;;;21.82;47.49;101067.81;5114599;28;20047;-75
2022/09/24 11:18:11;;;;;;;4.93;3.05;;;;;;;21.83;47.58;101064.13;5091781;28;20045;-75
2022/09/24 11:20:46;;;;;;;4.95;2.67;;;;;;;21.82;47.52;101062.44;5009456;28;20370;-75
2022/09/24 11:23:25;;;;;;;2.53;2.30;;;;;;;21.82;47.55;101068.69;5010716;28;20060;-75
2022/09/24 11:26:20;;;;;;;3.65;2.92;;;;;;;21.81;47.59;101068.81;5010513;28;20049;-75
2022/09/24 11:29:11;;;;;;;3.67;2.45;;;;;;;21.82;47.62;101079.47;5010280;28;20046;-75
2022/09/24 11:31:41;;;;;;;2.97;2.40;;;;;;;21.81;47.55;101072.38;5010773;28;20050;-75
2022/09/24 11:34:27;;;;;;;4.28;2.95;;;;;;;21.81;47.62;101068.81;5010112;28;20054;-75
2022/09/24 11:37:20;;;;;;;3.45;2.50;;;;;;;21.82;47.58;101062.44;5010476;28;20057;-75
2022/09/24 11:40:22;;;;;;;3.22;2.50;;;;;;;21.81;47.61;101061.59;5010620;28;20120;-75
2022/09/24 11:42:56;;;;;;;5.72;2.83;;;;;;;21.83;47.63;101058.75;5010687;28;20050;-74
2022/09/24 11:45:36;;;;;;;3.38;2.47;;;;;;;21.82;47.71;101063.28;5008688;28;20061;-75
2022/09/24 11:48:30;;;;;;;3.75;2.78;;;;;;;21.81;47.68;101050.81;5009149;28;20061;-75
2022/09/24 11:51:31;;;;;;;3.83;3.00;;;;;;;21.81;47.71;101052.66;4997510;28;20046;-76
2022/09/24 11:54:02;;;;;;;2.60;2.40;;;;;;;21.82;47.80;101048.97;4994088;28;20053;-75
2022/09/24 11:56:45;;;;;;;5.43;2.75;;;;;;;21.80;47.75;101046.41;4993963;28;20066;-75
2022/09/24 11:59:18;;;;;;;3.83;2.57;;;;;;;21.82;47.83;101038.19;4994021;28;20061;-75
2022/09/24 12:01:48;;;;;;;;;;;;;;;21.81;47.83;101033.78;4994617;28;20057;-75
2022/09/24 12:04:25;;;;;;;4.28;2.50;;;;;;;21.81;47.81;101033.78;4994629;28;19929;-76